sensor_id;sensor_type;location;lat;lon;timestamp;temperature;humidity
16814;DHT22;8524;57.650;11.926;2023-11-21T00:00:40;2.50;99.90
16814;DHT22;8524;57.650;11.926;2023-11-21T00:03:09;2.50;99.90
16814;DHT22;8524;57.650;11.926;2023-11-21T00:05:37;2.40;99.90
16814;DHT22;8524;57.650;11.926;2023-11-21T00:08:04;2.40;99.90
16814;DHT22;8524;57.650;11.926;2023-11-21T00:10:31;2.40;99.90
16814;DHT22;8524;57.650;11.926;2023-11-21T00:12:58;2.50;99.90
16814;DHT22;8524;57.650;11.926;2023-11-21T00:15:25;2.50;99.90
16814;DHT22;8524;57.650;11.926;2023-11-21T00:17:52;2.50;99.90
16814;DHT22;8524;57.650;11.926;2023-11-21T00:20:20;2.50;99.90
16814;DHT22;8524;57.650;11.926;2023-11-21T00:22:48;2.50;99.90
16814;DHT22;8524;57.650;11.926;2023-11-21T00:25:14;2.60;99.90
16814;DHT22;8524;57.650;11.926;2023-11-21T00:27:43;2.60;99.90
16814;DHT22;8524;57.650;11.926;2023-11-21T00:30:11;2.70;99.90
16814;DHT22;8524;57.650;11.926;2023-11-21T00:32:38;2.70;99.90
16814;DHT22;8524;57.650;11.926;2023-11-21T00:35:06;2.70;99.90
16814;DHT22;8524;57.650;11.926;2023-11-21T00:37:34;2.70;99.90
16814;DHT22;8524;57.650;11.926;2023-11-21T00:40:01;2.70;99.90
16814;DHT22;8524;57.650;11.926;2023-11-21T00:42:30;2.70;99.90
16814;DHT22;8524;57.650;11.926;2023-11-21T00:44:57;2.80;99.90
16814;DHT22;8524;57.650;11.926;2023-11-21T00:47:24;2.80;99.90
16814;DHT22;8524;57.650;11.926;2023-11-21T00:49:51;2.80;99.90
16814;DHT22;8524;57.650;11.926;2023-11-21T00:52:18;2.80;99.90
16814;DHT22;8524;57.650;11.926;2023-11-21T00:54:46;2.80;99.90
16814;DHT22;8524;57.650;11.926;2023-11-21T00:57:13;2.90;99.90
16814;DHT22;8524;57.650;11.926;2023-11-21T00:59:40;2.90;99.90
16814;DHT22;8524;57.650;11.926;2023-11-21T01:02:07;2.90;99.90
16814;DHT22;8524;57.650;11.926;2023-11-21T01:04:36;2.90;99.90
16814;DHT22;8524;57.650;11.926;2023-11-21T01:07:03;3.00;99.90
16814;DHT22;8524;57.650;11.926;2023-11-21T01:09:31;2.90;99.90
16814;DHT22;8524;57.650;11.926;2023-11-21T01:11:59;2.90;99.90
16814;DHT22;8524;57.650;11.926;2023-11-21T01:14:26;3.00;99.90
16814;DHT22;8524;57.650;11.926;2023-11-21T01:16:54;3.00;99.90
16814;DHT22;8524;57.650;11.926;2023-11-21T01:19:21;3.00;99.90
16814;DHT22;8524;57.650;11.926;2023-11-21T01:21:48;3.00;99.90
16814;DHT22;8524;57.650;11.926;2023-11-21T01:24:14;3.00;99.90
16814;DHT22;8524;57.650;11.926;2023-11-21T01:26:41;3.00;99.90
16814;DHT22;8524;57.650;11.926;2023-11-21T01:29:10;3.00;99.90
16814;DHT22;8524;57.650;11.926;2023-11-21T01:31:37;3.00;99.90
16814;DHT22;8524;57.650;11.926;2023-11-21T01:34:04;3.10;99.90
16814;DHT22;8524;57.650;11.926;2023-11-21T01:36:31;3.10;99.90
16814;DHT22;8524;57.650;11.926;2023-11-21T01:38:59;3.10;99.90
16814;DHT22;8524;57.650;11.926;2023-11-21T01:41:26;3.10;99.90
16814;DHT22;8524;57.650;11.926;2023-11-21T01:43:54;3.10;99.90
16814;DHT22;8524;57.650;11.926;2023-11-21T01:46:22;3.10;99.90
16814;DHT22;8524;57.650;11.926;2023-11-21T01:48:49;3.10;99.90
16814;DHT22;8524;57.650;11.926;2023-11-21T01:51:17;3.10;99.90
16814;DHT22;8524;57.650;11.926;2023-11-21T01:53:45;3.10;99.90
16814;DHT22;8524;57.650;11.926;2023-11-21T01:56:13;3.20;99.90
16814;DHT22;8524;57.650;11.926;2023-11-21T01:58:40;3.20;99.90
16814;DHT22;8524;57.650;11.926;2023-11-21T02:01:07;3.20;99.90
16814;DHT22;8524;57.650;11.926;2023-11-21T02:03:36;3.20;99.90
16814;DHT22;8524;57.650;11.926;2023-11-21T02:06:04;3.20;99.90
16814;DHT22;8524;57.650;11.926;2023-11-21T02:08:31;3.20;99.90
16814;DHT22;8524;57.650;11.926;2023-11-21T02:10:58;3.20;99.90
16814;DHT22;8524;57.650;11.926;2023-11-21T02:13:25;3.20;99.90
16814;DHT22;8524;57.650;11.926;2023-11-21T02:15:52;3.20;99.90
16814;DHT22;8524;57.650;11.926;2023-11-21T02:18:20;3.20;99.90
16814;DHT22;8524;57.650;11.926;2023-11-21T02:20:49;3.20;99.90
16814;DHT22;8524;57.650;11.926;2023-11-21T02:23:18;3.10;99.90
16814;DHT22;8524;57.650;11.926;2023-11-21T02:25:44;3.10;99.90
16814;DHT22;8524;57.650;11.926;2023-11-21T02:28:12;3.10;99.90
16814;DHT22;8524;57.650;11.926;2023-11-21T02:30:41;3.10;99.90
16814;DHT22;8524;57.650;11.926;2023-11-21T02:33:08;3.10;99.90
16814;DHT22;8524;57.650;11.926;2023-11-21T02:35:36;3.10;99.90
16814;DHT22;8524;57.650;11.926;2023-11-21T02:38:03;3.10;99.90
16814;DHT22;8524;57.650;11.926;2023-11-21T02:40:33;3.10;99.90
16814;DHT22;8524;57.650;11.926;2023-11-21T02:43:00;3.10;99.90
16814;DHT22;8524;57.650;11.926;2023-11-21T02:45:27;3.10;99.90
16814;DHT22;8524;57.650;11.926;2023-11-21T02:47:54;3.10;99.90
16814;DHT22;8524;57.650;11.926;2023-11-21T02:50:22;3.10;99.90
16814;DHT22;8524;57.650;11.926;2023-11-21T02:52:49;3.10;99.90
16814;DHT22;8524;57.650;11.926;2023-11-21T02:55:16;3.10;99.90
16814;DHT22;8524;57.650;11.926;2023-11-21T02:57:44;3.00;99.90
16814;DHT22;8524;57.650;11.926;2023-11-21T03:00:12;3.00;99.90
16814;DHT22;8524;57.650;11.926;2023-11-21T03:02:40;3.00;99.90
16814;DHT22;8524;57.650;11.926;2023-11-21T03:05:08;3.00;99.90
16814;DHT22;8524;57.650;11.926;2023-11-21T03:07:36;3.00;99.90
16814;DHT22;8524;57.650;11.926;2023-11-21T03:10:03;3.00;99.90
16814;DHT22;8524;57.650;11.926;2023-11-21T03:12:30;3.00;99.90
16814;DHT22;8524;57.650;11.926;2023-11-21T03:14:58;3.00;99.90
16814;DHT22;8524;57.650;11.926;2023-11-21T03:17:27;3.00;99.90
16814;DHT22;8524;57.650;11.926;2023-11-21T03:19:54;3.00;99.90
16814;DHT22;8524;57.650;11.926;2023-11-21T03:22:22;3.00;99.90
16814;DHT22;8524;57.650;11.926;2023-11-21T03:24:50;3.10;99.90
16814;DHT22;8524;57.650;11.926;2023-11-21T03:27:16;3.10;99.90
16814;DHT22;8524;57.650;11.926;2023-11-21T03:29:44;3.10;99.90
16814;DHT22;8524;57.650;11.926;2023-11-21T03:32:13;3.10;99.90
16814;DHT22;8524;57.650;11.926;2023-11-21T03:34:53;3.00;99.90
16814;DHT22;8524;57.650;11.926;2023-11-21T03:37:20;3.00;99.90
16814;DHT22;8524;57.650;11.926;2023-11-21T03:39:47;3.10;99.90
16814;DHT22;8524;57.650;11.926;2023-11-21T03:42:14;3.10;99.90
16814;DHT22;8524;57.650;11.926;2023-11-21T03:44:41;3.00;99.90
16814;DHT22;8524;57.650;11.926;2023-11-21T03:47:08;3.00;99.90
16814;DHT22;8524;57.650;11.926;2023-11-21T03:49:36;3.00;99.90
16814;DHT22;8524;57.650;11.926;2023-11-21T03:52:03;3.00;99.90
16814;DHT22;8524;57.650;11.926;2023-11-21T03:54:30;2.90;99.90
16814;DHT22;8524;57.650;11.926;2023-11-21T03:56:57;3.10;99.90
16814;DHT22;8524;57.650;11.926;2023-11-21T03:59:24;3.00;99.90
16814;DHT22;8524;57.650;11.926;2023-11-21T04:01:50;3.10;99.90
16814;DHT22;8524;57.650;11.926;2023-11-21T04:04:17;3.00;99.90
16814;DHT22;8524;57.650;11.926;2023-11-21T04:06:46;3.00;99.90
16814;DHT22;8524;57.650;11.926;2023-11-21T04:09:13;3.00;99.90
16814;DHT22;8524;57.650;11.926;2023-11-21T04:11:40;3.10;99.90
16814;DHT22;8524;57.650;11.926;2023-11-21T04:14:08;3.10;99.90
16814;DHT22;8524;57.650;11.926;2023-11-21T04:16:35;3.00;99.90
16814;DHT22;8524;57.650;11.926;2023-11-21T04:19:02;2.90;99.90
16814;DHT22;8524;57.650;11.926;2023-11-21T04:21:29;2.90;99.90
16814;DHT22;8524;57.650;11.926;2023-11-21T04:23:57;2.80;99.90
16814;DHT22;8524;57.650;11.926;2023-11-21T04:26:24;2.80;99.90
16814;DHT22;8524;57.650;11.926;2023-11-21T04:28:51;2.80;99.90
16814;DHT22;8524;57.650;11.926;2023-11-21T04:31:18;2.70;99.90
16814;DHT22;8524;57.650;11.926;2023-11-21T04:33:44;2.70;99.90
16814;DHT22;8524;57.650;11.926;2023-11-21T04:36:11;2.60;99.90
16814;DHT22;8524;57.650;11.926;2023-11-21T04:38:38;2.60;99.90
16814;DHT22;8524;57.650;11.926;2023-11-21T04:41:08;2.50;99.90
16814;DHT22;8524;57.650;11.926;2023-11-21T04:43:34;2.50;99.90
16814;DHT22;8524;57.650;11.926;2023-11-21T04:46:01;2.60;99.90
16814;DHT22;8524;57.650;11.926;2023-11-21T04:48:28;2.50;99.90
16814;DHT22;8524;57.650;11.926;2023-11-21T04:50:55;2.60;99.90
16814;DHT22;8524;57.650;11.926;2023-11-21T04:53:22;2.50;99.90
16814;DHT22;8524;57.650;11.926;2023-11-21T04:55:49;2.50;99.90
16814;DHT22;8524;57.650;11.926;2023-11-21T04:58:17;2.40;99.90
16814;DHT22;8524;57.650;11.926;2023-11-21T05:00:46;2.40;99.90
16814;DHT22;8524;57.650;11.926;2023-11-21T05:03:13;2.50;99.90
16814;DHT22;8524;57.650;11.926;2023-11-21T05:05:40;2.60;99.90
16814;DHT22;8524;57.650;11.926;2023-11-21T05:08:06;2.60;99.90
16814;DHT22;8524;57.650;11.926;2023-11-21T05:10:33;2.50;99.90
16814;DHT22;8524;57.650;11.926;2023-11-21T05:13:03;2.50;99.90
16814;DHT22;8524;57.650;11.926;2023-11-21T05:15:32;2.50;99.90
16814;DHT22;8524;57.650;11.926;2023-11-21T05:18:00;2.70;99.90
16814;DHT22;8524;57.650;11.926;2023-11-21T05:20:27;2.70;99.90
16814;DHT22;8524;57.650;11.926;2023-11-21T05:22:53;2.70;99.90
16814;DHT22;8524;57.650;11.926;2023-11-21T05:25:20;2.70;99.90
16814;DHT22;8524;57.650;11.926;2023-11-21T05:27:47;2.80;99.90
16814;DHT22;8524;57.650;11.926;2023-11-21T05:30:14;2.80;99.90
16814;DHT22;8524;57.650;11.926;2023-11-21T05:32:43;2.80;99.90
16814;DHT22;8524;57.650;11.926;2023-11-21T05:35:10;2.70;99.90
16814;DHT22;8524;57.650;11.926;2023-11-21T05:37:41;2.70;99.90
16814;DHT22;8524;57.650;11.926;2023-11-21T05:40:09;2.70;99.90
16814;DHT22;8524;57.650;11.926;2023-11-21T05:42:36;2.60;99.90
16814;DHT22;8524;57.650;11.926;2023-11-21T05:45:04;2.60;99.90
16814;DHT22;8524;57.650;11.926;2023-11-21T05:47:36;2.60;99.90
16814;DHT22;8524;57.650;11.926;2023-11-21T05:50:06;2.60;99.90
16814;DHT22;8524;57.650;11.926;2023-11-21T05:52:36;2.50;99.90
16814;DHT22;8524;57.650;11.926;2023-11-21T05:55:03;2.50;99.90
16814;DHT22;8524;57.650;11.926;2023-11-21T05:57:32;2.50;99.90
16814;DHT22;8524;57.650;11.926;2023-11-21T05:59:59;2.50;99.90
16814;DHT22;8524;57.650;11.926;2023-11-21T06:02:27;2.50;99.90
16814;DHT22;8524;57.650;11.926;2023-11-21T06:04:53;2.40;99.90
16814;DHT22;8524;57.650;11.926;2023-11-21T06:07:22;2.30;99.90
16814;DHT22;8524;57.650;11.926;2023-11-21T06:09:48;2.30;99.90
16814;DHT22;8524;57.650;11.926;2023-11-21T06:12:15;2.20;99.90
16814;DHT22;8524;57.650;11.926;2023-11-21T06:14:42;2.10;99.90
16814;DHT22;8524;57.650;11.926;2023-11-21T06:17:09;2.10;99.90
16814;DHT22;8524;57.650;11.926;2023-11-21T06:19:36;2.10;99.90
16814;DHT22;8524;57.650;11.926;2023-11-21T06:22:03;2.10;99.90
16814;DHT22;8524;57.650;11.926;2023-11-21T06:24:32;2.10;99.90
16814;DHT22;8524;57.650;11.926;2023-11-21T06:26:58;2.10;99.90
16814;DHT22;8524;57.650;11.926;2023-11-21T06:29:25;2.10;99.90
16814;DHT22;8524;57.650;11.926;2023-11-21T06:31:53;2.10;99.90
16814;DHT22;8524;57.650;11.926;2023-11-21T06:34:20;2.10;99.90
16814;DHT22;8524;57.650;11.926;2023-11-21T06:36:47;2.10;99.90
16814;DHT22;8524;57.650;11.926;2023-11-21T06:39:14;2.10;99.90
16814;DHT22;8524;57.650;11.926;2023-11-21T06:41:44;2.10;99.90
16814;DHT22;8524;57.650;11.926;2023-11-21T06:44:10;2.20;99.90
16814;DHT22;8524;57.650;11.926;2023-11-21T06:46:38;2.10;99.90
16814;DHT22;8524;57.650;11.926;2023-11-21T06:49:07;2.10;99.90
16814;DHT22;8524;57.650;11.926;2023-11-21T06:51:34;2.20;99.90
16814;DHT22;8524;57.650;11.926;2023-11-21T06:54:01;2.20;99.90
16814;DHT22;8524;57.650;11.926;2023-11-21T06:56:29;2.20;99.90
16814;DHT22;8524;57.650;11.926;2023-11-21T06:58:58;2.20;99.90
16814;DHT22;8524;57.650;11.926;2023-11-21T07:01:25;2.20;99.90
16814;DHT22;8524;57.650;11.926;2023-11-21T07:03:52;2.20;99.90
16814;DHT22;8524;57.650;11.926;2023-11-21T07:06:19;2.20;99.90
16814;DHT22;8524;57.650;11.926;2023-11-21T07:08:46;2.30;99.90
16814;DHT22;8524;57.650;11.926;2023-11-21T07:11:13;2.30;99.90
16814;DHT22;8524;57.650;11.926;2023-11-21T07:13:39;2.30;99.90
16814;DHT22;8524;57.650;11.926;2023-11-21T07:16:08;2.30;99.90
16814;DHT22;8524;57.650;11.926;2023-11-21T07:18:35;2.20;99.90
16814;DHT22;8524;57.650;11.926;2023-11-21T07:21:04;2.20;99.90
16814;DHT22;8524;57.650;11.926;2023-11-21T07:23:31;2.20;99.90
16814;DHT22;8524;57.650;11.926;2023-11-21T07:25:58;2.20;99.90
16814;DHT22;8524;57.650;11.926;2023-11-21T07:28:25;2.20;99.90
16814;DHT22;8524;57.650;11.926;2023-11-21T07:30:52;2.20;99.90
16814;DHT22;8524;57.650;11.926;2023-11-21T07:33:20;2.30;99.90
16814;DHT22;8524;57.650;11.926;2023-11-21T07:35:48;2.30;99.90
16814;DHT22;8524;57.650;11.926;2023-11-21T07:38:15;2.30;99.90
16814;DHT22;8524;57.650;11.926;2023-11-21T07:40:41;2.30;99.90
16814;DHT22;8524;57.650;11.926;2023-11-21T07:43:08;2.40;99.90
16814;DHT22;8524;57.650;11.926;2023-11-21T07:45:36;2.40;99.90
16814;DHT22;8524;57.650;11.926;2023-11-21T07:48:03;2.40;99.90
16814;DHT22;8524;57.650;11.926;2023-11-21T07:50:32;2.40;99.90
16814;DHT22;8524;57.650;11.926;2023-11-21T07:52:59;2.40;99.90
16814;DHT22;8524;57.650;11.926;2023-11-21T07:55:26;2.40;99.90
16814;DHT22;8524;57.650;11.926;2023-11-21T07:57:53;2.40;99.90
16814;DHT22;8524;57.650;11.926;2023-11-21T08:00:20;2.40;99.90
16814;DHT22;8524;57.650;11.926;2023-11-21T08:02:47;2.50;99.90
16814;DHT22;8524;57.650;11.926;2023-11-21T08:05:14;2.40;99.90
16814;DHT22;8524;57.650;11.926;2023-11-21T08:07:42;2.50;99.90
16814;DHT22;8524;57.650;11.926;2023-11-21T08:10:09;2.60;99.90
16814;DHT22;8524;57.650;11.926;2023-11-21T08:12:37;2.60;99.90
16814;DHT22;8524;57.650;11.926;2023-11-21T08:15:05;2.60;99.90
16814;DHT22;8524;57.650;11.926;2023-11-21T08:17:34;2.70;99.90
16814;DHT22;8524;57.650;11.926;2023-11-21T08:20:01;2.70;99.90
16814;DHT22;8524;57.650;11.926;2023-11-21T08:22:29;2.80;99.90
16814;DHT22;8524;57.650;11.926;2023-11-21T08:24:57;2.80;99.90
16814;DHT22;8524;57.650;11.926;2023-11-21T08:27:24;2.80;99.90
16814;DHT22;8524;57.650;11.926;2023-11-21T08:29:51;2.90;99.90
16814;DHT22;8524;57.650;11.926;2023-11-21T08:32:18;3.00;99.90
16814;DHT22;8524;57.650;11.926;2023-11-21T08:34:45;3.00;99.90
16814;DHT22;8524;57.650;11.926;2023-11-21T08:37:16;3.00;99.90
16814;DHT22;8524;57.650;11.926;2023-11-21T08:39:43;3.00;99.90
16814;DHT22;8524;57.650;11.926;2023-11-21T08:42:12;3.00;99.90
16814;DHT22;8524;57.650;11.926;2023-11-21T08:44:39;3.00;99.90
16814;DHT22;8524;57.650;11.926;2023-11-21T08:47:05;2.90;99.90
16814;DHT22;8524;57.650;11.926;2023-11-21T08:49:32;2.90;99.90
16814;DHT22;8524;57.650;11.926;2023-11-21T08:51:59;2.90;99.90
16814;DHT22;8524;57.650;11.926;2023-11-21T08:54:26;2.90;99.90
16814;DHT22;8524;57.650;11.926;2023-11-21T08:56:53;2.90;99.90
16814;DHT22;8524;57.650;11.926;2023-11-21T08:59:22;2.90;99.90
16814;DHT22;8524;57.650;11.926;2023-11-21T09:01:49;3.00;99.90
16814;DHT22;8524;57.650;11.926;2023-11-21T09:04:16;3.00;99.90
16814;DHT22;8524;57.650;11.926;2023-11-21T09:06:43;3.00;99.90
16814;DHT22;8524;57.650;11.926;2023-11-21T09:09:10;3.00;99.90
16814;DHT22;8524;57.650;11.926;2023-11-21T09:11:37;3.10;99.90
16814;DHT22;8524;57.650;11.926;2023-11-21T09:14:04;3.10;99.90
16814;DHT22;8524;57.650;11.926;2023-11-21T09:16:33;3.20;99.90
16814;DHT22;8524;57.650;11.926;2023-11-21T09:19:00;3.20;99.90
16814;DHT22;8524;57.650;11.926;2023-11-21T09:21:27;3.20;99.90
16814;DHT22;8524;57.650;11.926;2023-11-21T09:23:54;3.20;99.90
16814;DHT22;8524;57.650;11.926;2023-11-21T09:26:21;3.20;99.90
16814;DHT22;8524;57.650;11.926;2023-11-21T09:28:48;3.10;99.90
16814;DHT22;8524;57.650;11.926;2023-11-21T09:31:15;3.20;99.90
16814;DHT22;8524;57.650;11.926;2023-11-21T09:33:44;3.20;99.90
16814;DHT22;8524;57.650;11.926;2023-11-21T09:36:12;3.20;99.90
16814;DHT22;8524;57.650;11.926;2023-11-21T09:38:40;3.30;99.90
16814;DHT22;8524;57.650;11.926;2023-11-21T09:41:14;3.20;99.90
16814;DHT22;8524;57.650;11.926;2023-11-21T09:43:44;3.20;99.90
16814;DHT22;8524;57.650;11.926;2023-11-21T09:46:13;3.30;99.90
16814;DHT22;8524;57.650;11.926;2023-11-21T09:48:48;3.20;99.90
16814;DHT22;8524;57.650;11.926;2023-11-21T09:51:19;3.20;99.90
16814;DHT22;8524;57.650;11.926;2023-11-21T09:53:48;3.20;99.90
16814;DHT22;8524;57.650;11.926;2023-11-21T09:56:17;3.30;99.90
16814;DHT22;8524;57.650;11.926;2023-11-21T09:58:51;3.40;99.90
16814;DHT22;8524;57.650;11.926;2023-11-21T10:01:19;3.40;99.90
16814;DHT22;8524;57.650;11.926;2023-11-21T10:03:48;3.30;99.90
16814;DHT22;8524;57.650;11.926;2023-11-21T10:06:18;3.30;99.90
16814;DHT22;8524;57.650;11.926;2023-11-21T10:08:46;3.30;99.90
16814;DHT22;8524;57.650;11.926;2023-11-21T10:11:15;3.40;99.90
16814;DHT22;8524;57.650;11.926;2023-11-21T10:13:44;3.40;99.90
16814;DHT22;8524;57.650;11.926;2023-11-21T10:16:14;3.40;99.90
16814;DHT22;8524;57.650;11.926;2023-11-21T10:18:43;3.40;99.90
16814;DHT22;8524;57.650;11.926;2023-11-21T10:21:13;3.30;99.90
16814;DHT22;8524;57.650;11.926;2023-11-21T10:23:40;3.30;99.90
16814;DHT22;8524;57.650;11.926;2023-11-21T10:26:07;3.30;99.90
16814;DHT22;8524;57.650;11.926;2023-11-21T10:28:41;3.30;99.90
16814;DHT22;8524;57.650;11.926;2023-11-21T10:31:08;3.40;99.90
16814;DHT22;8524;57.650;11.926;2023-11-21T10:33:35;3.30;99.90
16814;DHT22;8524;57.650;11.926;2023-11-21T10:36:02;3.30;99.90
16814;DHT22;8524;57.650;11.926;2023-11-21T10:38:33;3.40;99.90
16814;DHT22;8524;57.650;11.926;2023-11-21T10:41:11;3.40;99.90
16814;DHT22;8524;57.650;11.926;2023-11-21T10:43:41;3.30;99.90
16814;DHT22;8524;57.650;11.926;2023-11-21T10:46:08;3.30;99.90
16814;DHT22;8524;57.650;11.926;2023-11-21T10:48:35;3.30;99.90
16814;DHT22;8524;57.650;11.926;2023-11-21T10:51:07;3.40;99.90
16814;DHT22;8524;57.650;11.926;2023-11-21T10:53:39;3.50;99.90
16814;DHT22;8524;57.650;11.926;2023-11-21T10:56:08;3.50;99.90
16814;DHT22;8524;57.650;11.926;2023-11-21T10:58:38;3.60;99.90
16814;DHT22;8524;57.650;11.926;2023-11-21T11:01:07;3.50;99.90
16814;DHT22;8524;57.650;11.926;2023-11-21T11:03:37;3.40;99.90
16814;DHT22;8524;57.650;11.926;2023-11-21T11:06:06;3.50;99.90
16814;DHT22;8524;57.650;11.926;2023-11-21T11:08:37;3.60;99.90
16814;DHT22;8524;57.650;11.926;2023-11-21T11:11:06;3.60;99.90
16814;DHT22;8524;57.650;11.926;2023-11-21T11:13:35;3.60;99.90
16814;DHT22;8524;57.650;11.926;2023-11-21T11:16:02;3.50;99.90
16814;DHT22;8524;57.650;11.926;2023-11-21T11:18:33;3.60;99.90
16814;DHT22;8524;57.650;11.926;2023-11-21T11:21:07;3.60;99.90
16814;DHT22;8524;57.650;11.926;2023-11-21T11:23:49;3.60;99.90
16814;DHT22;8524;57.650;11.926;2023-11-21T11:26:30;3.70;99.90
16814;DHT22;8524;57.650;11.926;2023-11-21T11:29:07;3.70;99.90
16814;DHT22;8524;57.650;11.926;2023-11-21T11:31:42;3.80;99.90
16814;DHT22;8524;57.650;11.926;2023-11-21T11:34:22;4.00;99.90
16814;DHT22;8524;57.650;11.926;2023-11-21T11:36:55;4.10;99.90
16814;DHT22;8524;57.650;11.926;2023-11-21T11:39:28;4.10;99.90
16814;DHT22;8524;57.650;11.926;2023-11-21T11:41:58;4.00;99.90
16814;DHT22;8524;57.650;11.926;2023-11-21T11:44:48;4.00;99.90
16814;DHT22;8524;57.650;11.926;2023-11-21T11:47:19;4.20;99.90
16814;DHT22;8524;57.650;11.926;2023-11-21T11:50:01;4.20;99.90
16814;DHT22;8524;57.650;11.926;2023-11-21T11:52:38;4.20;99.90
16814;DHT22;8524;57.650;11.926;2023-11-21T11:55:07;4.30;99.90
16814;DHT22;8524;57.650;11.926;2023-11-21T11:57:37;4.40;99.90
16814;DHT22;8524;57.650;11.926;2023-11-21T12:00:12;4.50;99.90
16814;DHT22;8524;57.650;11.926;2023-11-21T12:02:42;4.50;99.90
16814;DHT22;8524;57.650;11.926;2023-11-21T12:05:10;4.70;99.90
16814;DHT22;8524;57.650;11.926;2023-11-21T12:07:46;4.60;99.90
16814;DHT22;8524;57.650;11.926;2023-11-21T12:10:14;4.60;99.90
16814;DHT22;8524;57.650;11.926;2023-11-21T12:12:46;4.70;99.90
16814;DHT22;8524;57.650;11.926;2023-11-21T12:15:13;4.80;99.90
16814;DHT22;8524;57.650;11.926;2023-11-21T12:17:42;4.90;99.90
16814;DHT22;8524;57.650;11.926;2023-11-21T12:20:10;4.80;99.90
16814;DHT22;8524;57.650;11.926;2023-11-21T12:22:45;4.80;99.90
16814;DHT22;8524;57.650;11.926;2023-11-21T12:25:15;4.90;99.90
16814;DHT22;8524;57.650;11.926;2023-11-21T12:27:46;4.80;99.90
16814;DHT22;8524;57.650;11.926;2023-11-21T12:30:16;4.80;99.90
16814;DHT22;8524;57.650;11.926;2023-11-21T12:32:43;4.90;99.90
16814;DHT22;8524;57.650;11.926;2023-11-21T12:35:12;4.70;99.90
16814;DHT22;8524;57.650;11.926;2023-11-21T12:37:40;4.70;99.90
16814;DHT22;8524;57.650;11.926;2023-11-21T12:40:09;4.70;99.90
16814;DHT22;8524;57.650;11.926;2023-11-21T12:42:39;4.70;99.90
16814;DHT22;8524;57.650;11.926;2023-11-21T12:45:19;4.60;99.90
16814;DHT22;8524;57.650;11.926;2023-11-21T12:47:47;4.60;99.90
16814;DHT22;8524;57.650;11.926;2023-11-21T12:50:14;4.50;99.90
16814;DHT22;8524;57.650;11.926;2023-11-21T12:52:42;4.40;99.90
16814;DHT22;8524;57.650;11.926;2023-11-21T12:55:14;4.40;99.90
16814;DHT22;8524;57.650;11.926;2023-11-21T12:57:42;4.30;99.90
16814;DHT22;8524;57.650;11.926;2023-11-21T13:00:12;4.30;99.90
16814;DHT22;8524;57.650;11.926;2023-11-21T13:02:52;4.30;99.90
16814;DHT22;8524;57.650;11.926;2023-11-21T13:05:26;4.20;99.90
16814;DHT22;8524;57.650;11.926;2023-11-21T13:07:54;4.10;99.90
16814;DHT22;8524;57.650;11.926;2023-11-21T13:10:23;4.00;99.90
16814;DHT22;8524;57.650;11.926;2023-11-21T13:12:53;3.90;99.90
16814;DHT22;8524;57.650;11.926;2023-11-21T13:15:22;4.10;99.90
16814;DHT22;8524;57.650;11.926;2023-11-21T13:17:48;4.00;99.90
16814;DHT22;8524;57.650;11.926;2023-11-21T13:20:16;3.80;99.90
16814;DHT22;8524;57.650;11.926;2023-11-21T13:22:51;3.70;99.90
16814;DHT22;8524;57.650;11.926;2023-11-21T13:25:20;3.70;99.90
16814;DHT22;8524;57.650;11.926;2023-11-21T13:27:48;3.60;99.90
16814;DHT22;8524;57.650;11.926;2023-11-21T13:30:16;3.60;99.90
16814;DHT22;8524;57.650;11.926;2023-11-21T13:32:47;3.60;99.90
16814;DHT22;8524;57.650;11.926;2023-11-21T13:35:17;3.60;99.90
16814;DHT22;8524;57.650;11.926;2023-11-21T13:37:50;3.50;99.90
16814;DHT22;8524;57.650;11.926;2023-11-21T13:40:22;3.50;99.90
16814;DHT22;8524;57.650;11.926;2023-11-21T13:42:52;3.50;99.90
16814;DHT22;8524;57.650;11.926;2023-11-21T13:45:25;3.40;99.90
16814;DHT22;8524;57.650;11.926;2023-11-21T13:47:54;3.30;99.90
16814;DHT22;8524;57.650;11.926;2023-11-21T13:50:23;3.30;99.90
16814;DHT22;8524;57.650;11.926;2023-11-21T13:52:54;3.20;99.90
16814;DHT22;8524;57.650;11.926;2023-11-21T13:55:21;3.30;99.90
16814;DHT22;8524;57.650;11.926;2023-11-21T13:57:51;3.20;99.90
16814;DHT22;8524;57.650;11.926;2023-11-21T14:00:18;3.10;99.90
16814;DHT22;8524;57.650;11.926;2023-11-21T14:03:07;3.00;99.90
16814;DHT22;8524;57.650;11.926;2023-11-21T14:05:41;3.00;99.90
16814;DHT22;8524;57.650;11.926;2023-11-21T14:08:08;3.00;99.90
16814;DHT22;8524;57.650;11.926;2023-11-21T14:10:37;2.90;99.90
16814;DHT22;8524;57.650;11.926;2023-11-21T14:13:09;2.90;99.90
16814;DHT22;8524;57.650;11.926;2023-11-21T14:15:37;2.90;99.90
16814;DHT22;8524;57.650;11.926;2023-11-21T14:18:08;2.90;99.90
16814;DHT22;8524;57.650;11.926;2023-11-21T14:20:37;2.90;99.90
16814;DHT22;8524;57.650;11.926;2023-11-21T14:23:05;2.90;99.90
16814;DHT22;8524;57.650;11.926;2023-11-21T14:25:32;2.90;99.90
16814;DHT22;8524;57.650;11.926;2023-11-21T14:28:00;2.80;99.90
16814;DHT22;8524;57.650;11.926;2023-11-21T14:30:28;2.80;99.90
16814;DHT22;8524;57.650;11.926;2023-11-21T14:32:57;2.80;99.90
16814;DHT22;8524;57.650;11.926;2023-11-21T14:35:26;2.80;99.90
16814;DHT22;8524;57.650;11.926;2023-11-21T14:37:53;2.70;99.90
16814;DHT22;8524;57.650;11.926;2023-11-21T14:40:21;2.60;99.90
16814;DHT22;8524;57.650;11.926;2023-11-21T14:42:50;2.70;99.90
16814;DHT22;8524;57.650;11.926;2023-11-21T14:45:18;2.70;99.90
16814;DHT22;8524;57.650;11.926;2023-11-21T14:47:46;2.60;99.90
16814;DHT22;8524;57.650;11.926;2023-11-21T14:50:21;2.60;99.90
16814;DHT22;8524;57.650;11.926;2023-11-21T14:53:12;2.60;99.90
16814;DHT22;8524;57.650;11.926;2023-11-21T14:55:39;2.60;99.90
16814;DHT22;8524;57.650;11.926;2023-11-21T14:58:19;2.60;99.90
16814;DHT22;8524;57.650;11.926;2023-11-21T15:00:53;2.60;99.90
16814;DHT22;8524;57.650;11.926;2023-11-21T15:03:23;2.60;99.90
16814;DHT22;8524;57.650;11.926;2023-11-21T15:06:09;2.60;99.90
16814;DHT22;8524;57.650;11.926;2023-11-21T15:08:57;2.60;99.90
16814;DHT22;8524;57.650;11.926;2023-11-21T15:11:42;2.60;99.90
16814;DHT22;8524;57.650;11.926;2023-11-21T15:14:09;2.60;99.90
16814;DHT22;8524;57.650;11.926;2023-11-21T15:16:36;2.60;99.90
16814;DHT22;8524;57.650;11.926;2023-11-21T15:19:05;2.50;99.90
16814;DHT22;8524;57.650;11.926;2023-11-21T15:21:34;2.50;99.90
16814;DHT22;8524;57.650;11.926;2023-11-21T15:24:02;2.50;99.90
16814;DHT22;8524;57.650;11.926;2023-11-21T15:26:29;2.50;99.90
16814;DHT22;8524;57.650;11.926;2023-11-21T15:28:56;2.50;99.90
16814;DHT22;8524;57.650;11.926;2023-11-21T15:31:23;2.40;99.90
16814;DHT22;8524;57.650;11.926;2023-11-21T15:33:50;2.50;99.90
16814;DHT22;8524;57.650;11.926;2023-11-21T15:36:18;2.50;99.90
16814;DHT22;8524;57.650;11.926;2023-11-21T15:38:45;2.50;99.90
16814;DHT22;8524;57.650;11.926;2023-11-21T15:41:13;2.60;99.90
16814;DHT22;8524;57.650;11.926;2023-11-21T15:43:40;2.60;99.90
16814;DHT22;8524;57.650;11.926;2023-11-21T15:46:07;2.60;99.90
16814;DHT22;8524;57.650;11.926;2023-11-21T15:48:34;2.60;99.90
16814;DHT22;8524;57.650;11.926;2023-11-21T15:51:04;2.60;99.90
16814;DHT22;8524;57.650;11.926;2023-11-21T15:53:31;2.50;99.90